createdAt,value
2023-03-28T00:01:39.871Z,1.05
2023-03-28T00:04:11.816Z,0.80
2023-03-28T00:06:41.989Z,0.80
2023-03-28T00:09:11.184Z,0.60
2023-03-28T00:11:39.284Z,0.63
2023-03-28T00:14:08.823Z,0.50
2023-03-28T00:16:39.598Z,0.47
2023-03-28T00:19:11.888Z,0.63
2023-03-28T00:21:43.127Z,0.67
2023-03-28T00:24:14.030Z,0.55
2023-03-28T00:26:44.029Z,0.80
2023-03-28T00:29:21.588Z,0.70
2023-03-28T00:31:51.436Z,1.23
2023-03-28T00:34:19.393Z,0.85
2023-03-28T00:36:47.268Z,0.80
2023-03-28T00:39:15.568Z,0.80
2023-03-28T00:41:45.302Z,0.75
2023-03-28T00:44:41.851Z,0.70
2023-03-28T00:47:18.364Z,0.65
2023-03-28T00:49:50.057Z,0.70
2023-03-28T00:52:18.864Z,0.55
2023-03-28T00:54:47.068Z,0.40
2023-03-28T00:57:16.797Z,0.60
2023-03-28T00:59:46.135Z,0.70
2023-03-28T01:02:14.279Z,0.68
2023-03-28T01:05:06.278Z,0.70
2023-03-28T01:07:42.652Z,0.73
2023-03-28T01:10:12.262Z,0.80
2023-03-28T01:12:42.392Z,0.75
2023-03-28T01:15:11.088Z,1.25
2023-03-28T01:17:54.456Z,0.60
2023-03-28T01:20:47.077Z,0.60
2023-03-28T01:23:38.917Z,0.60
2023-03-28T01:26:44.354Z,0.70
2023-03-28T01:29:39.897Z,0.52
2023-03-28T01:32:30.078Z,0.60
2023-03-28T01:35:22.055Z,0.60
2023-03-28T01:38:12.488Z,0.93
2023-03-28T01:40:54.795Z,0.57
2023-03-28T01:43:25.975Z,0.70
2023-03-28T01:46:08.339Z,0.47
2023-03-28T01:49:28.665Z,0.70
2023-03-28T01:52:11.316Z,0.50
2023-03-28T01:55:14.826Z,0.60
2023-03-28T01:57:57.954Z,0.70
2023-03-28T02:00:46.318Z,0.70
2023-03-28T02:03:33.351Z,0.55
2023-03-28T02:06:09.550Z,0.40
2023-03-28T02:08:41.814Z,0.70
2023-03-28T02:11:39.926Z,0.55
2023-03-28T02:14:19.229Z,0.75
2023-03-28T02:16:55.602Z,0.60
2023-03-28T02:19:48.510Z,0.38
2023-03-28T02:22:35.745Z,0.50
2023-03-28T02:25:11.170Z,0.60
2023-03-28T02:28:09.242Z,0.75
2023-03-28T02:30:55.658Z,0.90
2023-03-28T02:33:39.535Z,0.80
2023-03-28T02:36:26.393Z,1.00
2023-03-28T02:39:39.100Z,0.70
2023-03-28T02:42:35.389Z,0.70
2023-03-28T02:45:29.186Z,0.65
2023-03-28T02:48:38.120Z,0.43
2023-03-28T02:51:23.848Z,0.70
2023-03-28T02:53:51.715Z,0.77
2023-03-28T02:56:38.642Z,0.68
2023-03-28T02:59:28.663Z,0.60
2023-03-28T03:01:57.094Z,0.50
2023-03-28T03:04:25.157Z,0.40
2023-03-28T03:06:53.176Z,0.52
2023-03-28T03:09:21.236Z,0.40
2023-03-28T03:11:49.416Z,1.23
2023-03-28T03:14:17.555Z,0.60
2023-03-28T03:16:49.099Z,0.57
2023-03-28T03:19:19.647Z,0.63
2023-03-28T03:21:47.599Z,0.80
2023-03-28T03:24:16.088Z,0.90
2023-03-28T03:26:45.764Z,0.70
2023-03-28T03:29:17.635Z,0.70
2023-03-28T03:31:46.566Z,0.60
2023-03-28T03:34:21.050Z,0.57
2023-03-28T03:36:55.120Z,0.50
2023-03-28T03:39:23.732Z,0.63
2023-03-28T03:41:51.640Z,0.70
2023-03-28T03:44:19.555Z,0.70
2023-03-28T03:46:47.504Z,0.93
2023-03-28T03:49:15.520Z,0.70
2023-03-28T03:51:43.686Z,1.10
2023-03-28T03:54:12.312Z,0.85
2023-03-28T03:56:40.904Z,0.88
2023-03-28T03:59:09.041Z,0.98
2023-03-28T04:01:40.228Z,0.60
2023-03-28T04:04:27.641Z,0.65
2023-03-28T04:07:08.958Z,0.77
2023-03-28T04:09:37.010Z,0.70
2023-03-28T04:12:08.304Z,0.70
2023-03-28T04:14:46.894Z,0.90
2023-03-28T04:17:35.458Z,1.08
2023-03-28T04:20:13.460Z,0.80
2023-03-28T04:23:01.131Z,0.60
2023-03-28T04:25:31.838Z,0.60
2023-03-28T04:28:10.567Z,1.02
2023-03-28T04:30:46.858Z,1.02
2023-03-28T04:33:34.136Z,0.90
2023-03-28T04:36:06.138Z,0.82
2023-03-28T04:38:37.779Z,0.90
2023-03-28T04:41:25.993Z,0.90
2023-03-28T04:44:23.379Z,0.95
2023-03-28T04:46:59.573Z,0.80
2023-03-28T04:49:27.534Z,1.00
2023-03-28T04:51:55.858Z,1.10
2023-03-28T04:54:23.771Z,1.15
2023-03-28T04:57:10.080Z,1.27
2023-03-28T04:59:46.551Z,1.27
2023-03-28T05:02:23.106Z,1.30
2023-03-28T05:05:07.804Z,1.80
2023-03-28T05:07:36.996Z,1.65
2023-03-28T05:10:06.730Z,1.92
2023-03-28T05:12:39.218Z,1.80
2023-03-28T05:15:07.780Z,2.58
2023-03-28T05:17:47.612Z,2.00
2023-03-28T05:20:36.718Z,1.77
2023-03-28T05:23:08.946Z,2.08
2023-03-28T05:25:40.273Z,1.70
2023-03-28T05:28:08.435Z,2.15
2023-03-28T05:30:43.917Z,1.88
2023-03-28T05:33:12.019Z,1.90
2023-03-28T05:35:40.651Z,1.40
2023-03-28T05:38:08.854Z,1.40
2023-03-28T05:40:37.597Z,1.52
2023-03-28T05:43:05.637Z,1.30
2023-03-28T05:45:34.686Z,1.25
2023-03-28T05:50:37.513Z,1.27
2023-03-28T05:53:08.587Z,1.27
2023-03-28T05:55:36.484Z,1.55
2023-03-28T05:58:05.488Z,1.55
2023-03-28T06:00:38.119Z,1.92
2023-03-28T06:03:08.117Z,1.42
2023-03-28T06:05:42.385Z,1.40
2023-03-28T06:08:19.364Z,1.42
2023-03-28T06:10:47.257Z,2.03
2023-03-28T06:13:26.498Z,2.22
2023-03-28T06:15:54.937Z,1.45
2023-03-28T06:18:31.802Z,1.75
2023-03-28T06:20:59.963Z,1.20
2023-03-28T06:23:28.156Z,1.73
2023-03-28T06:25:55.995Z,1.50
2023-03-28T06:28:24.694Z,1.30
2023-03-28T06:31:13.390Z,1.33
2023-03-28T06:33:43.407Z,1.20
2023-03-28T06:36:12.443Z,1.50
2023-03-28T06:38:40.542Z,1.42
2023-03-28T06:41:09.002Z,1.20
2023-03-28T06:43:38.100Z,1.10
2023-03-28T06:46:08.640Z,1.33
2023-03-28T06:48:40.066Z,1.40
2023-03-28T06:51:27.409Z,1.75
2023-03-28T06:53:55.708Z,1.40
2023-03-28T06:56:28.858Z,1.50
2023-03-28T06:58:59.083Z,2.17
2023-03-28T07:01:29.199Z,1.38
2023-03-28T07:04:10.565Z,1.30
2023-03-28T07:06:39.081Z,1.35
2023-03-28T07:09:07.182Z,2.20
2023-03-28T07:11:41.536Z,1.90
2023-03-28T07:14:09.660Z,2.13
2023-03-28T07:16:38.001Z,1.70
2023-03-28T07:19:06.166Z,1.80
2023-03-28T07:21:37.375Z,1.30
2023-03-28T07:24:06.253Z,1.23
2023-03-28T07:26:46.491Z,1.23
2023-03-28T07:29:14.410Z,0.95
2023-03-28T07:31:42.890Z,1.27
2023-03-28T07:34:10.951Z,1.75
2023-03-28T07:36:39.985Z,1.05
2023-03-28T07:39:13.817Z,1.20
2023-03-28T07:41:41.733Z,0.70
2023-03-28T07:44:09.901Z,1.00
2023-03-28T07:46:38.255Z,0.80
2023-03-28T07:49:06.895Z,1.63
2023-03-28T07:51:35.795Z,1.73
2023-03-28T07:54:05.381Z,1.83
2023-03-28T07:56:33.322Z,1.70
2023-03-28T07:59:19.925Z,1.80
2023-03-28T08:01:51.736Z,1.50
2023-03-28T08:04:20.842Z,1.70
2023-03-28T08:07:02.563Z,1.33
2023-03-28T08:09:30.442Z,1.25
2023-03-28T08:12:12.704Z,1.17
2023-03-28T08:14:40.532Z,0.68
2023-03-28T08:17:10.076Z,0.90
2023-03-28T08:19:38.321Z,1.10
2023-03-28T08:22:12.550Z,1.00
2023-03-28T08:25:07.912Z,1.10
2023-03-28T08:27:37.379Z,1.20
2023-03-28T08:30:10.960Z,0.80
2023-03-28T08:32:49.804Z,0.88
2023-03-28T08:35:17.872Z,0.93
2023-03-28T08:37:47.477Z,1.58
2023-03-28T08:40:19.296Z,1.52
2023-03-28T08:43:08.803Z,1.15
2023-03-28T08:45:53.812Z,1.67
2023-03-28T08:48:32.009Z,1.50
2023-03-28T08:51:07.981Z,1.65
2023-03-28T08:53:44.031Z,1.60
2023-03-28T08:56:15.771Z,1.45
2023-03-28T08:58:58.249Z,0.90
2023-03-28T09:01:29.889Z,1.00
2023-03-28T09:03:57.970Z,0.95
2023-03-28T09:06:41.249Z,1.20
2023-03-28T09:09:32.547Z,1.20
2023-03-28T09:12:23.311Z,1.10
2023-03-28T09:15:16.579Z,0.88
2023-03-28T09:18:17.418Z,1.08
2023-03-28T09:21:03.776Z,0.80
2023-03-28T09:23:35.831Z,1.10
2023-03-28T09:26:40.034Z,1.10
2023-03-28T09:29:18.118Z,1.17
2023-03-28T09:31:49.691Z,0.90
2023-03-28T09:34:27.876Z,0.88
2023-03-28T09:37:13.181Z,1.00
2023-03-28T09:39:52.541Z,0.73
2023-03-28T09:42:30.605Z,1.05
2023-03-28T09:45:37.345Z,0.95
2023-03-28T09:48:28.721Z,1.00
2023-03-28T09:51:02.966Z,0.80
2023-03-28T09:53:34.546Z,1.17
2023-03-28T09:56:26.630Z,1.00
2023-03-28T09:58:59.568Z,1.30
2023-03-28T10:01:48.424Z,0.90
2023-03-28T10:04:53.510Z,0.70
2023-03-28T10:07:48.016Z,0.60
2023-03-28T10:10:34.354Z,1.48
2023-03-28T10:15:43.458Z,1.38
2023-03-28T10:18:21.868Z,1.85
2023-03-28T10:23:37.101Z,1.60
2023-03-28T10:26:06.402Z,1.30
2023-03-28T10:28:37.658Z,1.70
2023-03-28T10:31:07.892Z,0.98
2023-03-28T10:33:46.557Z,0.82
2023-03-28T10:36:43.840Z,0.73
2023-03-28T10:42:06.629Z,0.70
2023-03-28T10:45:30.682Z,0.63
2023-03-28T10:48:01.710Z,0.60
2023-03-28T10:50:50.085Z,0.40
2023-03-28T10:53:47.895Z,0.40
2023-03-28T10:56:28.875Z,0.63
2023-03-28T10:59:14.792Z,0.32
2023-03-28T11:02:07.537Z,0.52
2023-03-28T11:05:00.131Z,0.50
2023-03-28T11:07:52.579Z,0.40
2023-03-28T11:10:59.892Z,0.40
2023-03-28T11:13:55.248Z,0.40
2023-03-28T11:17:03.863Z,0.55
2023-03-28T11:21:12.771Z,0.73
2023-03-28T11:23:46.303Z,0.57
2023-03-28T11:26:48.575Z,0.50
2023-03-28T11:30:01.424Z,0.60
2023-03-28T11:32:59.997Z,0.47
2023-03-28T11:35:42.791Z,1.42
2023-03-28T11:38:27.999Z,0.75
2023-03-28T11:41:22.137Z,0.73
2023-03-28T11:44:37.570Z,0.82
2023-03-28T11:47:18.895Z,0.65
2023-03-28T11:50:15.290Z,0.73
2023-03-28T11:53:11.356Z,0.70
2023-03-28T11:55:52.223Z,0.75
2023-03-28T11:58:47.353Z,0.50
2023-03-28T12:01:23.288Z,0.40
2023-03-28T12:04:00.428Z,0.68
2023-03-28T12:07:02.356Z,0.30
2023-03-28T12:09:45.426Z,0.60
2023-03-28T12:12:18.833Z,0.80
2023-03-28T12:15:05.964Z,0.60
2023-03-28T12:18:02.857Z,0.90
2023-03-28T12:21:03.412Z,0.65
2023-03-28T12:23:45.151Z,0.70
2023-03-28T12:27:09.422Z,0.52
2023-03-28T12:30:07.571Z,0.68
2023-03-28T12:32:59.922Z,0.50
2023-03-28T12:35:48.617Z,0.47
2023-03-28T12:38:29.491Z,0.47
2023-03-28T12:41:26.953Z,0.60
2023-03-28T12:44:05.439Z,0.90
2023-03-28T12:46:48.809Z,0.70
2023-03-28T12:49:36.494Z,0.63
2023-03-28T12:52:17.479Z,0.88
2023-03-28T12:54:57.736Z,0.73
2023-03-28T12:57:41.115Z,0.73
2023-03-28T13:00:23.958Z,0.85
2023-03-28T13:03:48.411Z,0.82
2023-03-28T13:06:49.713Z,0.70
2023-03-28T13:09:31.346Z,0.63
2023-03-28T13:12:03.493Z,1.10
2023-03-28T13:14:41.477Z,0.77
2023-03-28T13:17:27.194Z,0.60
2023-03-28T13:20:08.101Z,0.70
2023-03-28T13:22:49.320Z,0.90
2023-03-28T13:25:21.333Z,0.68
2023-03-28T13:27:51.391Z,0.70
2023-03-28T13:30:32.880Z,0.60
2023-03-28T13:33:08.147Z,0.80
2023-03-28T13:35:36.265Z,0.65
2023-03-28T13:38:29.738Z,0.52
2023-03-28T13:41:09.968Z,0.70
2023-03-28T13:43:56.366Z,0.60
2023-03-28T13:46:53.865Z,0.70
2023-03-28T13:49:31.129Z,0.77
2023-03-28T13:52:13.347Z,0.90
2023-03-28T13:54:41.493Z,0.60
2023-03-28T13:57:17.848Z,0.50
2023-03-28T13:59:59.874Z,1.08
2023-03-28T14:02:46.674Z,0.90
2023-03-28T14:05:26.500Z,0.80
2023-03-28T14:08:01.747Z,1.10
2023-03-28T14:10:34.608Z,0.80
2023-03-28T14:13:19.063Z,0.90
2023-03-28T14:15:48.209Z,0.85
2023-03-28T14:18:22.067Z,1.08
2023-03-28T14:20:50.119Z,0.85
2023-03-28T14:23:29.777Z,1.13
2023-03-28T14:26:02.508Z,0.90
2023-03-28T14:30:59.346Z,1.00
2023-03-28T14:33:37.581Z,1.00
2023-03-28T14:36:06.321Z,1.02
2023-03-28T14:38:38.541Z,1.00
2023-03-28T14:41:19.611Z,1.33
2023-03-28T14:43:52.474Z,1.05
2023-03-28T14:46:30.251Z,1.30
2023-03-28T14:49:01.543Z,1.08
2023-03-28T14:51:40.272Z,0.90
2023-03-28T14:54:14.592Z,1.00
2023-03-28T14:56:45.645Z,1.17
2023-03-28T14:59:18.163Z,1.00
2023-03-28T15:01:51.803Z,0.98
2023-03-28T15:04:23.144Z,1.10
2023-03-28T15:06:56.536Z,0.80
2023-03-28T15:09:33.453Z,1.00
2023-03-28T15:12:07.096Z,1.05
2023-03-28T15:14:41.692Z,0.77
2023-03-28T15:17:19.580Z,0.98
2023-03-28T15:19:53.160Z,1.10
2023-03-28T15:22:28.135Z,1.27
2023-03-28T15:24:58.265Z,1.00
2023-03-28T15:27:33.941Z,1.23
2023-03-28T15:30:13.477Z,0.80
2023-03-28T15:32:41.674Z,0.85
2023-03-28T15:35:30.915Z,1.13
2023-03-28T15:38:08.276Z,0.90
2023-03-28T15:40:44.753Z,0.93
2023-03-28T15:43:33.508Z,0.80
2023-03-28T15:46:04.462Z,1.17
2023-03-28T15:48:36.749Z,0.65
2023-03-28T15:51:19.021Z,0.98
2023-03-28T15:53:49.172Z,1.20
2023-03-28T15:56:22.071Z,0.73
2023-03-28T15:58:50.082Z,1.20
2023-03-28T16:01:32.688Z,1.00
2023-03-28T16:04:22.400Z,0.90
2023-03-28T16:07:14.890Z,1.10
2023-03-28T16:09:43.486Z,1.00
2023-03-28T16:12:15.782Z,1.30
2023-03-28T16:14:53.088Z,1.33
2023-03-28T16:17:49.251Z,0.98
2023-03-28T16:20:28.143Z,1.05
2023-03-28T16:23:00.148Z,0.82
2023-03-28T16:25:29.267Z,1.20
2023-03-28T16:27:58.122Z,0.90
2023-03-28T16:30:34.123Z,1.08
2023-03-28T16:33:02.092Z,1.30
2023-03-28T16:35:30.129Z,1.10
2023-03-28T16:37:58.308Z,1.20
2023-03-28T16:40:26.397Z,1.30
2023-03-28T16:42:54.831Z,1.25
2023-03-28T16:45:23.251Z,1.38
2023-03-28T16:47:51.414Z,1.20
2023-03-28T16:50:19.630Z,1.20
2023-03-28T16:52:47.535Z,1.42
2023-03-28T16:55:18.211Z,1.33
2023-03-28T16:57:46.606Z,1.80
2023-03-28T17:00:18.169Z,1.38
2023-03-28T17:02:47.749Z,1.10
2023-03-28T17:05:16.999Z,1.35
2023-03-28T17:07:45.035Z,1.52
2023-03-28T17:10:13.098Z,1.30
2023-03-28T17:12:41.525Z,1.58
2023-03-28T17:15:09.981Z,1.88
2023-03-28T17:17:38.000Z,1.50
2023-03-28T17:20:06.815Z,1.73
2023-03-28T17:22:34.848Z,1.70
2023-03-28T17:25:02.981Z,2.03
2023-03-28T17:27:31.034Z,1.40
2023-03-28T17:29:59.064Z,1.50
2023-03-28T17:32:27.346Z,1.38
2023-03-28T17:34:55.472Z,1.50
2023-03-28T17:37:24.547Z,1.70
2023-03-28T17:39:52.713Z,2.17
2023-03-28T17:42:20.852Z,1.90
2023-03-28T17:44:48.876Z,2.10
2023-03-28T17:47:17.186Z,2.22
2023-03-28T17:49:45.151Z,2.25
2023-03-28T17:52:13.166Z,1.92
2023-03-28T17:54:41.344Z,2.05
2023-03-28T17:57:09.824Z,2.00
2023-03-28T17:59:37.862Z,2.00
2023-03-28T18:02:05.892Z,2.42
2023-03-28T18:04:34.068Z,2.78
2023-03-28T18:07:16.780Z,3.00
2023-03-28T18:09:46.060Z,3.53
2023-03-28T18:12:14.132Z,3.97
2023-03-28T18:14:42.251Z,3.47
2023-03-28T18:17:10.425Z,2.95
2023-03-28T18:19:38.489Z,2.67
2023-03-28T18:22:06.596Z,2.95
2023-03-28T18:24:34.696Z,2.97
2023-03-28T18:27:02.734Z,2.65
2023-03-28T18:29:31.332Z,2.58
2023-03-28T18:31:59.379Z,2.63
2023-03-28T18:34:27.547Z,2.33
2023-03-28T18:36:55.885Z,2.22
2023-03-28T18:39:23.938Z,2.60
2023-03-28T18:41:52.220Z,2.83
2023-03-28T18:44:20.156Z,3.05
2023-03-28T18:46:55.088Z,2.80
2023-03-28T18:49:23.077Z,2.67
2023-03-28T18:51:51.127Z,3.53
2023-03-28T18:54:20.155Z,3.35
2023-03-28T18:56:48.603Z,3.58
2023-03-28T18:59:17.821Z,3.08
2023-03-28T19:01:51.753Z,3.33
2023-03-28T19:04:23.350Z,3.10
2023-03-28T19:06:52.876Z,3.15
2023-03-28T19:09:21.450Z,4.00
2023-03-28T19:11:53.399Z,3.55
2023-03-28T19:14:21.388Z,3.30
2023-03-28T19:16:49.559Z,3.03
2023-03-28T19:19:17.657Z,3.35
2023-03-28T19:21:45.687Z,3.38
2023-03-28T19:24:13.712Z,3.25
2023-03-28T19:26:41.737Z,3.63
2023-03-28T19:29:09.784Z,3.65
2023-03-28T19:31:37.862Z,4.50
2023-03-28T19:34:08.057Z,4.47
2023-03-28T19:36:36.229Z,5.50
2023-03-28T19:39:04.368Z,5.70
2023-03-28T19:41:32.341Z,5.82
2023-03-28T19:44:00.767Z,6.03
2023-03-28T19:46:36.446Z,6.93
2023-03-28T19:49:07.164Z,6.45
2023-03-28T19:51:35.981Z,5.97
2023-03-28T19:54:05.031Z,5.53
2023-03-28T19:56:33.603Z,4.75
2023-03-28T19:59:01.941Z,4.97
2023-03-28T20:01:30.273Z,8.93
2023-03-28T20:03:58.387Z,4.47
2023-03-28T20:06:26.479Z,4.82
2023-03-28T20:08:54.766Z,5.05
2023-03-28T20:11:22.820Z,4.90
2023-03-28T20:13:51.586Z,5.25
2023-03-28T20:16:20.291Z,4.88
2023-03-28T20:18:48.652Z,4.75
2023-03-28T20:21:17.232Z,4.72
2023-03-28T20:23:45.349Z,5.97
2023-03-28T20:26:18.973Z,5.13
2023-03-28T20:28:50.408Z,5.15
2023-03-28T20:31:19.561Z,4.88
2023-03-28T20:33:47.580Z,4.65
2023-03-28T20:36:15.681Z,5.20
2023-03-28T20:38:43.925Z,5.28
2023-03-28T20:41:14.225Z,5.07
2023-03-28T20:43:47.859Z,4.53
2023-03-28T20:46:20.615Z,5.07
2023-03-28T20:48:53.223Z,4.38
2023-03-28T20:51:23.289Z,4.43
2023-03-28T20:53:59.243Z,4.07
2023-03-28T20:56:29.658Z,4.50
2023-03-28T20:58:59.071Z,3.70
2023-03-28T21:01:30.307Z,3.45
2023-03-28T21:04:00.419Z,3.92
2023-03-28T21:06:33.670Z,3.60
2023-03-28T21:09:05.030Z,3.05
2023-03-28T21:11:35.330Z,3.30
2023-03-28T21:14:04.822Z,3.53
2023-03-28T21:16:33.366Z,3.03
2023-03-28T21:19:02.827Z,3.22
2023-03-28T21:21:33.541Z,3.78
2023-03-28T21:24:02.364Z,3.88
2023-03-28T21:26:31.626Z,3.75
2023-03-28T21:28:59.814Z,3.38
2023-03-28T21:31:29.717Z,3.28
2023-03-28T21:33:59.262Z,3.60
2023-03-28T21:36:28.134Z,3.60
2023-03-28T21:38:56.994Z,3.28
2023-03-28T21:41:27.576Z,3.72
2023-03-28T21:43:56.276Z,3.15
2023-03-28T21:46:24.417Z,3.30
2023-03-28T21:48:52.495Z,3.22
2023-03-28T21:51:20.493Z,3.13
2023-03-28T21:53:48.484Z,2.70
2023-03-28T21:56:16.965Z,3.05
2023-03-28T21:58:45.038Z,3.33
2023-03-28T22:01:15.056Z,3.78
2023-03-28T22:03:43.259Z,3.53
2023-03-28T22:06:11.750Z,3.25
2023-03-28T22:08:41.239Z,3.58
2023-03-28T22:11:17.780Z,3.45
2023-03-28T22:13:47.721Z,3.53
2023-03-28T22:16:15.830Z,3.25
2023-03-28T22:18:50.218Z,3.42
2023-03-28T22:21:18.447Z,3.40
2023-03-28T22:23:47.792Z,3.13
2023-03-28T22:26:16.363Z,4.18
2023-03-28T22:28:44.417Z,3.72
2023-03-28T22:31:13.059Z,3.88
2023-03-28T22:33:40.967Z,3.53
2023-03-28T22:36:09.761Z,3.80
2023-03-28T22:38:37.863Z,3.33
2023-03-28T22:41:07.921Z,4.05
2023-03-28T22:43:36.506Z,3.92
2023-03-28T22:46:08.392Z,4.28
2023-03-28T22:48:38.392Z,3.88
2023-03-28T22:51:12.098Z,3.72
2023-03-28T22:53:40.512Z,3.65
2023-03-28T22:56:09.157Z,3.55
2023-03-28T22:58:37.293Z,3.67
2023-03-28T23:01:06.016Z,3.30
2023-03-28T23:03:34.094Z,3.47
2023-03-28T23:06:06.312Z,3.15
2023-03-28T23:08:34.383Z,4.18
2023-03-28T23:11:02.505Z,3.22
2023-03-28T23:13:30.712Z,3.75
2023-03-28T23:15:58.715Z,3.47
2023-03-28T23:18:26.734Z,3.45
2023-03-28T23:20:54.622Z,3.28
2023-03-28T23:23:23.424Z,4.05
2023-03-28T23:25:51.661Z,3.58
2023-03-28T23:28:20.396Z,3.83
2023-03-28T23:30:48.712Z,4.38
2023-03-28T23:33:18.741Z,3.60
2023-03-28T23:35:48.604Z,3.78
2023-03-28T23:38:17.795Z,4.35
2023-03-28T23:40:46.811Z,3.22
2023-03-28T23:43:15.039Z,4.20
2023-03-28T23:45:44.061Z,3.72
2023-03-28T23:48:12.200Z,3.58
2023-03-28T23:50:40.464Z,3.55
2023-03-28T23:53:08.627Z,3.60
2023-03-28T23:55:37.162Z,3.63
2023-03-28T23:58:05.202Z,3.17
